Map

Track Data

SID SEASON NUMBER BASIN SUBBASIN NAME ISO_TIME NATURE LAT LON WMO_WIND WMO_PRES WMO_AGENCY TRACK_TYPE DIST2LAND LANDFALL IFLAG USA_AGENCY USA_ATCF_ID USA_LAT USA_LON USA_RECORD USA_STATUS USA_WIND USA_PRES USA_SSHS USA_R34_NE USA_R34_SE USA_R34_SW USA_R34_NW USA_R50_NE USA_R50_SE USA_R50_SW USA_R50_NW USA_R64_NE USA_R64_SE USA_R64_SW USA_R64_NW USA_POCI USA_ROCI USA_RMW USA_EYE TOKYO_LAT TOKYO_LON TOKYO_GRADE TOKYO_WIND TOKYO_PRES TOKYO_R50_DIR TOKYO_R50_LONG TOKYO_R50_SHORT TOKYO_R30_DIR TOKYO_R30_LONG TOKYO_R30_SHORT TOKYO_LAND CMA_LAT CMA_LON CMA_CAT CMA_WIND CMA_PRES HKO_LAT HKO_LON HKO_CAT HKO_WIND HKO_PRES NEWDELHI_LAT NEWDELHI_LON NEWDELHI_GRADE NEWDELHI_WIND NEWDELHI_PRES NEWDELHI_CI NEWDELHI_DP NEWDELHI_POCI REUNION_LAT REUNION_LON REUNION_TYPE REUNION_WIND REUNION_PRES REUNION_TNUM REUNION_CI REUNION_RMW REUNION_R34_NE REUNION_R34_SE REUNION_R34_SW REUNION_R34_NW REUNION_R50_NE REUNION_R50_SE REUNION_R50_SW REUNION_R50_NW REUNION_R64_NE REUNION_R64_SE REUNION_R64_SW REUNION_R64_NW BOM_LAT BOM_LON BOM_TYPE BOM_WIND BOM_PRES BOM_TNUM BOM_CI BOM_RMW BOM_R34_NE BOM_R34_SE BOM_R34_SW BOM_R34_NW BOM_R50_NE BOM_R50_SE BOM_R50_SW BOM_R50_NW BOM_R64_NE BOM_R64_SE BOM_R64_SW BOM_R64_NW BOM_ROCI BOM_POCI BOM_EYE BOM_POS_METHOD BOM_PRES_METHOD NADI_LAT NADI_LON NADI_CAT NADI_WIND NADI_PRES WELLINGTON_LAT WELLINGTON_LON WELLINGTON_WIND WELLINGTON_PRES DS824_LAT DS824_LON DS824_STAGE DS824_WIND DS824_PRES TD9636_LAT TD9636_LON TD9636_STAGE TD9636_WIND TD9636_PRES TD9635_LAT TD9635_LON TD9635_WIND TD9635_PRES TD9635_ROCI NEUMANN_LAT NEUMANN_LON NEUMANN_CLASS NEUMANN_WIND NEUMANN_PRES MLC_LAT MLC_LON MLC_CLASS MLC_WIND MLC_PRES USA_GUST BOM_GUST BOM_GUST_PER REUNION_GUST REUNION_GUST_PER USA_SEAHGT USA_SEARAD_NE USA_SEARAD_SE USA_SEARAD_SW USA_SEARAD_NW STORM_SPEED STORM_DIR
1978188N24144 1978 47 WP MM NOT_NAMED 1978-07-07 00:00:00 TS 23.5000 144.000 main 1332 1288 __O___________ -1 23.5000 144.000 0 19 1006 12 32
1978188N24144 1978 47 WP MM NOT_NAMED 1978-07-07 03:00:00 TS 23.9950 144.332 main 1288 1249 __P___________ -1 23.9950 144.332 0 21 1005 12 33
1978188N24144 1978 47 WP MM NOT_NAMED 1978-07-07 06:00:00 TS 24.5000 144.700 main 1249 1212 __O___________ -1 24.5000 144.700 1 23 1004 12 35
1978188N24144 1978 47 WP MM NOT_NAMED 1978-07-07 09:00:00 TS 25.0151 145.115 main 1212 1178 __P___________ -1 25.0151 145.115 1 26 1004 12 36
1978188N24144 1978 47 WP MM NOT_NAMED 1978-07-07 12:00:00 TS 25.5000 145.500 main 1178 1147 __O___________ -1 25.5000 145.500 1 29 1004 11 33
1978188N24144 1978 47 WP MM NOT_NAMED 1978-07-07 15:00:00 TS 25.9223 145.766 main 1151 1122 __P___________ -1 25.9223 145.766 1 29 1004 9 29
1978188N24144 1978 47 WP MM NOT_NAMED 1978-07-07 18:00:00 TS 26.3000 146.000 main 1122 1103 __O___________ -1 26.3000 146.000 1 29 1004 9 34
1978188N24144 1978 47 WP MM NOT_NAMED 1978-07-07 21:00:00 TS 26.6576 146.315 main 1099 1087 __P___________ -1 26.6576 146.315 1 29 1004 9 37
1978188N24144 1978 47 WP MM NOT_NAMED 1978-07-08 00:00:00 TS 27.0000 146.600 main 1087 1069 __O___________ -1 27.0000 146.600 1 29 1004 8 32
1978188N24144 1978 47 WP MM NOT_NAMED 1978-07-08 03:00:00 TS 27.3499 146.810 main 1069 1038 __P___________ -1 27.3499 146.810 1 29 1004 8 21
1978188N24144 1978 47 WP MM NOT_NAMED 1978-07-08 06:00:00 TS 27.7000 146.900 main 1038 1010 __O___________ -1 27.7000 146.900 1 29 1004 7 4
1978188N24144 1978 47 WP MM NOT_NAMED 1978-07-08 09:00:00 TS 28.0423 146.875 main 1010 963 __P___________ -1 28.0423 146.875 1 29 1005 7 346
1978188N24144 1978 47 WP MM NOT_NAMED 1978-07-08 12:00:00 TS 28.4000 146.700 main 963 909 __O___________ -1 28.4000 146.700 1 29 1006 9 331
1978188N24144 1978 47 WP MM NOT_NAMED 1978-07-08 15:00:00 TS 28.7924 146.410 main 909 850 __P___________ -1 28.7924 146.410 1 26 1006 10 323
1978188N24144 1978 47 WP MM NOT_NAMED 1978-07-08 18:00:00 TS 29.2000 146.000 main 850 791 __O___________ -1 29.2000 146.000 1 23 1006 11 316
1978188N24144 1978 47 WP MM NOT_NAMED 1978-07-08 21:00:00 TS 29.6000 145.530 main 786 721 __P___________ -1 29.6000 145.530 1 23 1007 12 313
1978188N24144 1978 47 WP MM NOT_NAMED 1978-07-09 00:00:00 TS 30.0000 145.000 main 721 657 __O___________ -1 30.0000 145.000 1 23 1008 12 312
1978188N24144 1978 47 WP MM NOT_NAMED 1978-07-09 03:00:00 TS 30.4071 144.480 main 657 588 __P___________ -1 30.4071 144.480 1 23 1008 12 310
1978188N24144 1978 47 WP MM NOT_NAMED 1978-07-09 06:00:00 TS 30.8000 143.900 main 588 514 __O___________ -1 30.8000 143.900 1 23 1008 14 304
1978188N24144 1978 47 WP MM NOT_NAMED 1978-07-09 09:00:00 TS 31.1732 143.163 main 514 449 __P___________ -1 31.1732 143.163 1 23 1008 14 300
1978188N24144 1978 47 WP MM NOT_NAMED 1978-07-09 12:00:00 TS 31.5000 142.500 main 449 415 __O___________ -1 31.5000 142.500 1 23 1008 10 304
1978188N24144 1978 47 WP MM NOT_NAMED 1978-07-09 15:00:00 TS 31.7491 142.161 main 415 372 __P___________ -1 31.7491 142.161 1 23 1008 7 314
1978188N24144 1978 47 WP MM NOT_NAMED 1978-07-09 18:00:00 TS 32.0000 141.900 main 372 329 __O___________ -1 32.0000 141.900 1 23 1008 8 318
1978188N24144 1978 47 WP MM NOT_NAMED 1978-07-09 21:00:00 TS 32.3417 141.532 main 325 265 __P___________ -1 32.3417 141.532 1 23 1008 10 313
1978188N24144 1978 47 WP MM NOT_NAMED 1978-07-10 00:00:00 TS 32.7000 141.000 main 265 213 __O___________ -1 32.7000 141.000 1 23 1008 13 300
1978188N24144 1978 47 WP MM NOT_NAMED 1978-07-10 03:00:00 TS 33.0014 140.158 main 213 152 __P___________ -1 33.0014 140.158 1 1009 15 293
1978188N24144 1978 47 WP MM NOT_NAMED 1978-07-10 06:00:00 TS 33.3000 139.300 main 152 111 __O___________ -1 33.3000 139.300 0 1010 14 295
1978188N24144 1978 47 WP MM NOT_NAMED 1978-07-10 09:00:00 TS 33.6046 138.636 main 112 67 __P___________ -1 33.6046 138.636 0 1010 11 310
1978188N24144 1978 47 WP MM NOT_NAMED 1978-07-10 12:00:00 TS 34.0000 138.300 main 67 21 __O___________ -1 34.0000 138.300 0 1011 10 350
1978188N24144 1978 47 WP MM NOT_NAMED 1978-07-10 15:00:00 TS 34.5774 138.436 main 18 0 __P___________ -1 34.5774 138.436 0 1011 13 19
1978188N24144 1978 47 WP MM NOT_NAMED 1978-07-10 18:00:00 TS 35.2000 138.800 main 0 0 __O___________ -1 35.2000 138.800 0 1012 13 25
1978188N24144 1978 47 WP MM NOT_NAMED 1978-07-10 21:00:00 TS 35.7324 139.088 main 0 0 __P___________ -1 35.7324 139.088 0 1013 11 22
1978188N24144 1978 47 WP MM NOT_NAMED 1978-07-11 00:00:00 TS 36.2000 139.300 main 0 __O___________ -1 36.2000 139.300 0 1014 10 20

Digital Typhoon Data and Search

About IBTrACS Database

This database is a web-friendly format of International Best Track Archive for Climate Stewardship (IBTrACS), a global best track data archive curated by NOAA dating back to 1842.

Updated: 2021-11-26